Time;durP1;ratioP1;P1;durP2;ratioP2;P2;SDS_P1;SDS_P2;PMS_P1;PMS_P2;Temp;Humidity;BMP_temperature;BMP_pressure;BME280_temperature;BME280_humidity;BME280_pressure;Samples;Min_cycle;Max_cycle;Signal;HPM_P1;HPM_P2
2022/01/09 00:01:56;;;;;;;51.17;28.63;;;;;;;0.02;83.33;99479.49;1649544;87;21069;-73
2022/01/09 00:04:23;;;;;;;57.13;30.07;;;;;;;0.07;83.61;99479.87;1649307;87;22097;-81
2022/01/09 00:06:50;;;;;;;60.43;32.17;;;;;;;0.12;83.56;99466.52;1649578;87;21074;-74
2022/01/09 00:09:17;;;;;;;55.83;30.17;;;;;;;0.10;83.34;99459.23;1649312;87;21050;-72
2022/01/09 00:11:44;;;;;;;59.63;32.17;;;;;;;0.07;83.47;99457.97;1649455;87;21066;-72
2022/01/09 00:14:11;;;;;;;58.43;32.23;;;;;;;0.06;83.42;99452.84;1649389;87;21027;-76
2022/01/09 00:16:38;;;;;;;51.83;28.90;;;;;;;0.05;83.37;99454.55;1649778;87;21261;-72
2022/01/09 00:19:05;;;;;;;54.27;30.67;;;;;;;-0.01;82.61;99453.32;1649372;87;21473;-71
2022/01/09 00:21:32;;;;;;;61.27;33.77;;;;;;;-0.16;82.05;99455.61;1648671;87;21094;-79
2022/01/09 00:23:59;;;;;;;57.77;32.90;;;;;;;-0.26;82.28;99453.53;1649306;87;21066;-72
2022/01/09 00:26:26;;;;;;;58.67;30.20;;;;;;;-0.31;82.70;99448.84;1649335;87;21069;-76
2022/01/09 00:28:53;;;;;;;53.53;30.57;;;;;;;-0.28;82.68;99437.27;1649346;87;21211;-78
2022/01/09 00:31:20;;;;;;;52.70;28.73;;;;;;;-0.33;82.28;99439.45;1649412;87;21086;-73
2022/01/09 00:33:46;;;;;;;54.13;31.30;;;;;;;-0.40;82.21;99433.48;1649355;87;21071;-77
2022/01/09 00:36:13;;;;;;;48.80;27.40;;;;;;;-0.41;82.53;99432.23;1649453;87;20947;-81
2022/01/09 00:38:40;;;;;;;52.53;29.57;;;;;;;-0.43;82.25;99427.52;1649447;87;21074;-72
2022/01/09 00:41:08;;;;;;;52.63;29.60;;;;;;;-0.51;82.04;99429.70;1649396;87;21176;-73
2022/01/09 00:43:36;;;;;;;52.40;27.73;;;;;;;-0.57;82.08;99435.34;1649311;87;21623;-76
2022/01/09 00:46:03;;;;;;;58.80;30.67;;;;;;;-0.58;82.29;99423.32;1649338;87;21051;-73
2022/01/09 00:48:30;;;;;;;57.57;31.53;;;;;;;-0.63;81.92;99412.23;1649802;87;21067;-75
2022/01/09 00:50:58;;;;;;;52.10;29.00;;;;;;;-0.69;82.23;99405.42;1649586;87;21479;-72
2022/01/09 00:53:26;;;;;;;53.17;30.70;;;;;;;-0.69;82.01;99396.41;1649365;87;22081;-78
2022/01/09 00:55:52;;;;;;;51.17;28.07;;;;;;;-0.78;81.77;99397.30;1649168;87;21059;-73
2022/01/09 00:58:20;;;;;;;51.47;28.97;;;;;;;-0.86;81.41;99393.93;1649492;87;21117;-72
2022/01/09 01:00:47;;;;;;;53.67;28.83;;;;;;;-0.96;81.37;99382.86;1649587;87;21027;-72
2022/01/09 01:03:14;;;;;;;54.00;29.97;;;;;;;-0.95;82.22;99370.41;1649392;87;21558;-72
2022/01/09 01:05:41;;;;;;;52.60;28.23;;;;;;;-0.88;82.47;99363.97;1649573;87;21117;-72
2022/01/09 01:08:08;;;;;;;48.57;28.33;;;;;;;-0.89;82.34;99356.66;1649166;87;21101;-74
2022/01/09 01:10:35;;;;;;;52.70;29.17;;;;;;;-0.92;82.24;99343.81;1649615;87;21062;-72
2022/01/09 01:13:02;;;;;;;53.10;29.07;;;;;;;-0.92;82.61;99345.95;1649452;87;21567;-79
2022/01/09 01:15:30;;;;;;;46.00;26.47;;;;;;;-0.92;82.82;99339.96;1649604;87;21066;-72
2022/01/09 01:17:59;;;;;;;52.43;27.23;;;;;;;-0.88;83.15;99337.80;1649467;87;21158;-72
2022/01/09 01:20:27;;;;;;;51.97;27.50;;;;;;;-0.82;83.42;99331.75;1649502;87;21062;-79
2022/01/09 01:22:57;;;;;;;54.03;27.80;;;;;;;-0.80;83.20;99329.59;1644878;87;21074;-72
2022/01/09 01:25:23;;;;;;;49.33;26.93;;;;;;;-0.83;82.68;99322.30;1639411;87;21035;-73
2022/01/09 01:27:50;;;;;;;47.07;25.67;;;;;;;-0.92;82.25;99318.09;1639490;87;21043;-77
2022/01/09 01:30:17;;;;;;;47.00;24.77;;;;;;;-0.98;82.62;99322.01;1639486;87;21151;-72
2022/01/09 01:32:45;;;;;;;43.20;24.97;;;;;;;-0.97;82.62;99312.12;1639501;87;21043;-71
2022/01/09 01:35:13;;;;;;;45.43;24.40;;;;;;;-0.97;82.62;99310.84;1639592;87;21035;-81
2022/01/09 01:37:42;;;;;;;53.13;25.80;;;;;;;-0.99;82.60;99303.16;1639496;87;21040;-73
2022/01/09 01:40:15;;;;;;;50.60;25.73;;;;;;;-1.00;82.70;99295.44;1639816;87;21094;-72
2022/01/09 01:42:43;;;;;;;57.07;28.10;;;;;;;-1.01;82.65;99291.17;1639137;87;21322;-77
2022/01/09 01:45:11;;;;;;;51.10;27.33;;;;;;;-1.02;82.95;99290.77;1639536;87;21493;-73
2022/01/09 01:47:38;;;;;;;48.70;26.90;;;;;;;-0.98;83.09;99282.14;1639460;87;21062;-72
2022/01/09 01:50:08;;;;;;;48.70;25.77;;;;;;;-0.97;83.18;99279.98;1639567;87;21067;-71
2022/01/09 01:52:40;;;;;;;49.60;26.23;;;;;;;-0.96;83.13;99276.13;1639872;87;26792;-71
2022/01/09 01:55:08;;;;;;;50.90;28.03;;;;;;;-0.92;83.19;99266.65;1638963;87;21164;-72
2022/01/09 01:57:40;;;;;;;49.63;26.77;;;;;;;-0.95;82.85;99264.11;1639672;87;21034;-72
2022/01/09 02:00:12;;;;;;;43.53;24.60;;;;;;;-0.94;82.88;99260.69;1639556;87;20931;-72
2022/01/09 02:02:39;;;;;;;51.47;26.73;;;;;;;-0.97;82.46;99258.11;1639716;87;21515;-72
2022/01/09 02:05:07;;;;;;;39.93;24.57;;;;;;;-1.04;82.33;99253.47;1639456;87;21082;-72
2022/01/09 02:07:35;;;;;;;45.20;24.73;;;;;;;-1.05;82.56;99247.92;1639708;87;21087;-72
2022/01/09 02:10:08;;;;;;;48.37;25.30;;;;;;;-1.04;82.48;99243.18;1639339;87;21075;-73
2022/01/09 02:12:40;;;;;;;44.90;25.13;;;;;;;-1.07;82.50;99240.64;1639735;87;21587;-73
2022/01/09 02:15:47;;;;;;;47.17;25.27;;;;;;;-1.08;82.32;99237.66;1639491;87;21035;-80
2022/01/09 02:18:19;;;;;;;50.60;24.87;;;;;;;-1.10;82.27;99243.24;1639689;87;21457;-72
2022/01/09 02:20:48;;;;;;;44.80;25.83;;;;;;;-1.07;82.80;99248.36;1639335;87;21166;-72
2022/01/09 02:23:16;;;;;;;46.47;23.77;;;;;;;-1.04;82.73;99232.89;1643927;87;21558;-72
2022/01/09 02:25:46;;;;;;;44.00;24.60;;;;;;;-1.09;82.31;99228.22;1649329;87;21042;-72
2022/01/09 02:28:16;;;;;;;47.78;25.50;;;;;;;-1.13;82.31;99223.55;1649558;87;21520;-72
2022/01/09 02:30:45;;;;;;;54.73;27.20;;;;;;;-1.13;82.47;99226.12;1649409;87;21022;-72
2022/01/09 02:33:17;;;;;;;55.83;27.20;;;;;;;-1.09;82.67;99215.80;1649359;87;21171;-72
2022/01/09 02:35:51;;;;;;;49.30;25.00;;;;;;;-1.10;82.56;99208.97;1649348;87;21503;-72
2022/01/09 02:38:20;;;;;;;46.93;23.77;;;;;;;-1.08;82.67;99204.23;1649332;87;21518;-79
2022/01/09 02:40:52;;;;;;;48.97;25.00;;;;;;;-1.13;82.52;99202.98;1649371;87;21019;-72
2022/01/09 02:43:20;;;;;;;47.47;24.37;;;;;;;-1.08;82.88;99205.52;1649366;87;21058;-74
2022/01/09 02:45:54;;;;;;;47.37;24.63;;;;;;;-1.04;83.00;99201.19;1649455;87;21151;-81
2022/01/09 02:48:16;;;;;;;41.80;24.40;;;;;;;-1.02;83.01;99193.87;1648728;87;21051;-71
2022/01/09 02:50:59;;;;;;;44.73;23.10;;;;;;;-1.01;82.98;99185.72;1649528;87;21081;-72
2022/01/09 02:53:20;;;;;;;42.80;23.27;;;;;;;-0.99;83.05;99180.14;1647374;87;20966;-77
2022/01/09 02:55:48;;;;;;;44.17;21.90;;;;;;;-0.93;83.41;99168.50;1649513;87;21155;-71
2022/01/09 02:58:15;;;;;;;48.17;24.03;;;;;;;-0.90;83.26;99163.31;1649388;87;22046;-80
2022/01/09 03:00:44;;;;;;;49.47;23.77;;;;;;;-0.87;83.44;99157.30;1649168;87;21042;-73
2022/01/09 03:03:13;;;;;;;49.30;24.13;;;;;;;-0.83;83.32;99153.80;1621002;88;21512;-81
2022/01/09 03:05:40;;;;;;;43.60;22.10;;;;;;;-0.83;83.24;99157.66;1649591;87;21041;-73
2022/01/09 03:08:08;;;;;;;44.90;23.17;;;;;;;-0.81;83.30;99160.64;1649591;87;21075;-72
2022/01/09 03:10:35;;;;;;;44.07;23.57;;;;;;;-0.80;83.27;99153.80;1649588;87;21173;-79
2022/01/09 03:13:04;;;;;;;43.93;24.27;;;;;;;-0.79;83.08;99158.06;1649300;87;20958;-76
2022/01/09 03:15:31;;;;;;;43.10;23.77;;;;;;;-0.80;83.02;99152.07;1649428;87;21011;-77
2022/01/09 03:17:58;;;;;;;46.67;24.83;;;;;;;-0.83;82.99;99149.94;1649434;87;21580;-78
2022/01/09 03:20:26;;;;;;;44.20;22.90;;;;;;;-0.83;82.98;99146.97;1649737;87;21509;-72
2022/01/09 03:22:55;;;;;;;46.40;23.60;;;;;;;-0.81;83.06;99140.05;1649311;87;21144;-72
2022/01/09 03:25:24;;;;;;;49.80;25.20;;;;;;;-0.80;83.12;99136.64;1649295;87;21030;-74
2022/01/09 03:27:54;;;;;;;46.50;23.13;;;;;;;-0.80;82.96;99144.35;1649569;87;21026;-80
2022/01/09 03:30:23;;;;;;;45.08;23.90;;;;;;;-0.83;82.98;99140.53;1649701;87;21015;-71
2022/01/09 03:32:52;;;;;;;45.30;23.80;;;;;;;-0.78;83.22;99139.17;1649571;87;21122;-71
2022/01/09 03:35:22;;;;;;;49.18;24.67;;;;;;;-0.75;83.27;99137.84;1649423;87;22132;-72
2022/01/09 03:37:50;;;;;;;47.75;25.20;;;;;;;-0.73;83.09;99143.84;1649702;87;21050;-72
2022/01/09 03:40:22;;;;;;;37.87;21.70;;;;;;;-0.77;82.99;99138.33;1649353;87;21054;-80
2022/01/09 03:42:54;;;;;;;44.53;23.30;;;;;;;-0.77;83.13;99137.88;1649748;87;21467;-72
2022/01/09 03:45:24;;;;;;;41.60;21.57;;;;;;;-0.78;82.91;99132.74;1649351;87;21323;-75
2022/01/09 03:47:52;;;;;;;49.73;23.65;;;;;;;-0.76;83.16;99129.28;1649397;87;21148;-74
2022/01/09 03:50:19;;;;;;;44.57;23.77;;;;;;;-0.75;83.02;99127.55;1649292;87;21464;-72
2022/01/09 03:52:48;;;;;;;44.80;23.27;;;;;;;-0.77;82.87;99134.02;1622829;88;21061;-73
2022/01/09 03:55:20;;;;;;;43.73;23.20;;;;;;;-0.78;82.81;99131.45;1650696;87;20950;-72
2022/01/09 03:57:48;;;;;;;48.23;23.27;;;;;;;-0.77;83.01;99129.31;1650794;87;21057;-72
2022/01/09 04:00:20;;;;;;;44.67;23.87;;;;;;;-0.81;82.69;99126.34;1650984;87;21971;-72
2022/01/09 04:02:49;;;;;;;42.50;22.83;;;;;;;-0.83;82.68;99116.50;1650706;87;21059;-71
2022/01/09 04:05:16;;;;;;;42.00;22.47;;;;;;;-0.88;82.66;99120.44;1650898;87;21507;-73
2022/01/09 04:07:44;;;;;;;43.67;23.37;;;;;;;-0.90;82.74;99129.44;1650975;87;21022;-72
2022/01/09 04:10:11;;;;;;;46.60;23.97;;;;;;;-0.91;82.76;99129.03;1650857;87;21014;-80
2022/01/09 04:12:48;;;;;;;40.93;22.53;;;;;;;-0.90;82.78;99123.45;1650964;87;21132;-72
2022/01/09 04:15:09;;;;;;;;;;;;;;;-0.92;82.73;99127.31;1651813;86;21078;-72
2022/01/09 04:20:15;;;;;;;39.00;21.43;;;;;;;-0.91;82.90;99118.74;1649247;87;21110;-71
2022/01/09 04:22:42;;;;;;;42.03;22.67;;;;;;;-0.94;82.69;99108.94;1649732;87;21115;-72
2022/01/09 04:25:10;;;;;;;43.70;23.20;;;;;;;-0.97;82.74;99112.39;1649325;87;21140;-76
2022/01/09 04:27:37;;;;;;;41.67;22.97;;;;;;;-0.98;82.82;99106.80;1649514;87;20991;-72
2022/01/09 04:30:06;;;;;;;45.83;23.97;;;;;;;-0.99;82.79;99108.13;1649428;87;21034;-73
2022/01/09 04:32:33;;;;;;;44.80;22.97;;;;;;;-1.03;82.60;99110.30;1649795;87;21074;-72
2022/01/09 04:35:00;;;;;;;42.50;23.10;;;;;;;-1.09;82.52;99115.08;1649439;87;21102;-71
2022/01/09 04:37:28;;;;;;;41.47;21.87;;;;;;;-1.05;82.90;99114.59;1649569;87;21492;-81
2022/01/09 04:39:56;;;;;;;38.03;21.87;;;;;;;-1.06;82.75;99110.33;1649350;87;21019;-80
2022/01/09 04:42:29;;;;;;;42.10;21.53;;;;;;;-1.05;82.98;99111.62;1649680;87;21015;-72
2022/01/09 04:44:52;;;;;;;43.83;22.10;;;;;;;-1.00;82.98;99111.55;1649549;86;21545;-71
2022/01/09 04:47:19;;;;;;;41.57;21.37;;;;;;;-1.00;82.92;99110.27;1649829;87;21115;-74
2022/01/09 04:49:48;;;;;;;41.30;22.07;;;;;;;-1.00;82.80;99102.14;1649502;87;21099;-73
2022/01/09 04:52:19;;;;;;;37.67;20.57;;;;;;;-1.00;82.83;99098.69;1649774;87;21054;-72
2022/01/09 04:54:44;;;;;;;38.10;21.33;;;;;;;-0.97;82.88;99103.39;1649601;86;21046;-78
2022/01/09 04:57:11;;;;;;;43.80;22.37;;;;;;;-0.97;82.95;99094.80;1649482;87;21074;-71
2022/01/09 04:59:40;;;;;;;41.80;22.33;;;;;;;-0.93;82.94;99096.48;1649672;87;21101;-71
2022/01/09 05:02:07;;;;;;;36.23;20.77;;;;;;;-0.96;82.78;99089.65;1649723;87;21116;-73
2022/01/09 05:04:35;;;;;;;40.07;21.73;;;;;;;-0.92;82.88;99087.44;1649413;87;21030;-78
2022/01/09 05:07:02;;;;;;;34.83;20.13;;;;;;;-0.95;82.73;99078.92;1648844;86;21335;-78
2022/01/09 05:09:29;;;;;;;41.27;20.97;;;;;;;-0.97;82.55;99081.94;1646855;87;21041;-71
2022/01/09 05:11:57;;;;;;;37.93;20.77;;;;;;;-1.01;82.35;99081.56;1664858;86;21035;-71
2022/01/09 05:14:24;;;;;;;41.03;21.40;;;;;;;-1.05;82.41;99076.91;1667337;86;21171;-74
2022/01/09 05:16:51;;;;;;;34.60;20.10;;;;;;;-1.07;82.53;99067.50;1649360;87;21054;-80
2022/01/09 05:19:20;;;;;;;33.03;19.50;;;;;;;-1.08;82.51;99074.37;1667329;86;21509;-76
2022/01/09 05:21:49;;;;;;;34.67;18.17;;;;;;;-1.07;82.50;99068.78;1649534;87;21035;-71
2022/01/09 05:24:16;;;;;;;39.33;21.80;;;;;;;-1.10;82.39;99068.38;1649365;87;21050;-71
2022/01/09 05:26:43;;;;;;;36.27;21.37;;;;;;;-1.14;82.45;99071.44;1667521;86;22134;-81
2022/01/09 05:29:11;;;;;;;31.53;18.80;;;;;;;-1.10;82.43;99062.39;1649395;87;21590;-72
2022/01/09 05:31:39;;;;;;;35.73;19.60;;;;;;;-1.16;82.49;99060.75;1649339;87;21094;-72
2022/01/09 05:34:07;;;;;;;33.27;18.30;;;;;;;-1.15;82.31;99053.44;1667475;86;21650;-72
2022/01/09 05:36:34;;;;;;;34.33;19.30;;;;;;;-1.20;82.20;99053.91;1667628;86;21054;-75
2022/01/09 05:39:01;;;;;;;34.77;18.70;;;;;;;-1.17;82.60;99056.01;1649368;87;21169;-79
2022/01/09 05:41:28;;;;;;;33.50;17.60;;;;;;;-1.12;82.69;99061.11;1667506;86;21030;-79
2022/01/09 05:43:56;;;;;;;96.97;42.13;;;;;;;-1.10;82.43;99055.97;1649375;87;21607;-71
2022/01/09 05:46:22;;;;;;;48.03;24.67;;;;;;;-1.12;82.50;99052.95;1667634;86;21517;-71
2022/01/09 05:48:50;;;;;;;73.03;36.07;;;;;;;-1.12;82.38;99048.25;1649407;87;21039;-73
2022/01/09 05:51:18;;;;;;;71.77;37.57;;;;;;;-1.12;82.45;99054.24;1667529;86;21956;-72
2022/01/09 05:53:44;;;;;;;55.37;30.63;;;;;;;-1.09;82.42;99053.80;1667299;86;21004;-71
2022/01/09 05:56:12;;;;;;;40.90;26.87;;;;;;;-1.10;82.48;99049.53;1649477;87;21057;-71
2022/01/09 05:58:39;;;;;;;36.57;22.37;;;;;;;-1.09;82.37;99050.78;1667456;86;21401;-71
2022/01/09 06:01:08;;;;;;;41.23;24.17;;;;;;;-1.10;82.30;99050.83;1667672;86;21040;-74
2022/01/09 06:03:35;;;;;;;108.63;48.63;;;;;;;-1.06;82.51;99052.48;1649491;87;21797;-72
2022/01/09 06:06:03;;;;;;;125.13;60.20;;;;;;;-1.09;82.18;99053.36;1667235;86;21556;-71
2022/01/09 06:08:30;;;;;;;101.17;52.60;;;;;;;-1.06;82.33;99047.33;1649360;87;21040;-79
2022/01/09 06:10:57;;;;;;;44.57;25.23;;;;;;;-1.09;82.04;99046.93;1667455;86;21007;-72
2022/01/09 06:13:24;;;;;;;94.97;43.63;;;;;;;-1.14;82.04;99047.00;1649482;87;21550;-72
2022/01/09 06:15:51;;;;;;;81.97;37.77;;;;;;;-1.12;82.06;99048.25;1667346;86;21162;-71
2022/01/09 06:18:20;;;;;;;88.57;40.77;;;;;;;-1.14;82.12;99053.43;1649222;87;21053;-73
2022/01/09 06:20:49;;;;;;;83.00;38.70;;;;;;;-1.16;81.86;99059.02;1667318;86;21011;-71
2022/01/09 06:23:20;;;;;;;68.07;32.17;;;;;;;-1.18;82.01;99052.19;1649196;87;21062;-71
2022/01/09 06:25:48;;;;;;;65.40;29.87;;;;;;;-1.16;82.11;99050.02;1667509;86;21046;-72
2022/01/09 06:28:19;;;;;;;66.13;30.97;;;;;;;-1.19;81.96;99050.06;1649346;87;21150;-71
2022/01/09 06:30:46;;;;;;;51.13;27.48;;;;;;;-1.19;82.11;99050.06;1667372;86;21281;-81
2022/01/09 06:33:14;;;;;;;48.03;24.00;;;;;;;-1.14;82.27;99052.15;1667308;86;21516;-71
2022/01/09 06:35:41;;;;;;;43.23;22.17;;;;;;;-1.14;82.05;99052.55;1667390;85;21019;-72
2022/01/09 06:38:08;;;;;;;71.60;33.93;;;;;;;-1.15;82.04;99047.01;1647663;87;21111;-77
2022/01/09 06:40:36;;;;;;;53.27;27.17;;;;;;;-1.15;81.77;99049.58;1667625;86;21596;-72
2022/01/09 06:43:04;;;;;;;47.80;24.53;;;;;;;-1.20;81.74;99050.91;1667240;86;20960;-72
2022/01/09 06:45:32;;;;;;;44.00;22.83;;;;;;;-1.20;81.82;99050.91;1667540;86;21067;-80
2022/01/09 06:48:02;;;;;;;39.40;21.83;;;;;;;-1.24;81.75;99040.70;1649318;87;21051;-72
2022/01/09 06:50:29;;;;;;;43.00;23.40;;;;;;;-1.25;81.84;99043.67;1649692;87;21102;-71
2022/01/09 06:52:56;;;;;;;37.07;20.90;;;;;;;-1.23;81.89;99037.25;1667277;86;21145;-72
2022/01/09 06:55:23;;;;;;;33.77;19.13;;;;;;;-1.21;81.99;99040.66;1667637;86;21436;-71
2022/01/09 06:57:50;;;;;;;38.37;20.00;;;;;;;-1.21;81.96;99038.93;1649346;87;21548;-71
2022/01/09 07:00:17;;;;;;;41.83;22.80;;;;;;;-1.21;81.95;99038.93;1667544;86;21011;-71
2022/01/09 07:02:45;;;;;;;33.17;19.90;;;;;;;-1.21;81.87;99035.52;1649356;87;21054;-72
2022/01/09 07:05:14;;;;;;;38.20;20.57;;;;;;;-1.23;81.69;99028.25;1667306;86;22059;-70
2022/01/09 07:07:41;;;;;;;40.53;21.10;;;;;;;-1.24;81.73;99027.84;1667142;85;21031;-76
2022/01/09 07:10:10;;;;;;;34.60;19.43;;;;;;;-1.28;81.60;99026.16;1667450;86;21531;-74
2022/01/09 07:12:37;;;;;;;31.77;17.73;;;;;;;-1.27;81.74;99030.45;1649512;87;21015;-79
2022/01/09 07:15:06;;;;;;;39.37;19.97;;;;;;;-1.26;81.94;99027.00;1667372;86;21082;-78
2022/01/09 07:17:34;;;;;;;27.20;15.57;;;;;;;-1.28;81.76;99023.14;1649519;87;21143;-72
2022/01/09 07:20:01;;;;;;;27.10;16.40;;;;;;;-1.29;81.53;99021.45;1649121;87;21046;-75
2022/01/09 07:22:27;;;;;;;28.57;15.70;;;;;;;-1.32;81.66;99022.78;1667497;86;21042;-72
2022/01/09 07:24:55;;;;;;;26.73;15.50;;;;;;;-1.31;81.62;99028.77;1649309;87;21022;-72
2022/01/09 07:27:21;;;;;;;28.60;16.30;;;;;;;-1.32;81.53;99027.92;1670683;85;21332;-72
2022/01/09 07:29:48;;;;;;;26.03;15.60;;;;;;;-1.32;81.79;99027.92;1649310;87;21100;-72
2022/01/09 07:32:16;;;;;;;24.87;15.23;;;;;;;-1.28;81.88;99019.29;1665801;85;21034;-71
2022/01/09 07:34:43;;;;;;;25.17;14.43;;;;;;;-1.21;82.06;99020.09;1667286;86;20999;-71
2022/01/09 07:37:09;;;;;;;25.13;14.00;;;;;;;-1.18;81.81;99019.61;1649475;87;21047;-71
2022/01/09 07:39:36;;;;;;;24.93;14.30;;;;;;;-1.18;81.68;99017.48;1667369;86;21050;-72
2022/01/09 07:42:05;;;;;;;25.57;14.00;;;;;;;-1.17;81.67;99017.44;1649676;87;21122;-72
2022/01/09 07:44:32;;;;;;;21.57;12.03;;;;;;;-1.17;81.51;99023.88;1667209;86;21086;-71
2022/01/09 07:46:59;;;;;;;22.87;13.57;;;;;;;-1.23;81.41;99024.39;1667302;86;21298;-72
2022/01/09 07:49:26;;;;;;;24.97;14.03;;;;;;;-1.19;81.60;99018.33;1667282;86;21042;-76
2022/01/09 07:51:53;;;;;;;22.03;12.53;;;;;;;-1.19;81.46;99019.61;1649475;87;21131;-73
2022/01/09 07:54:20;;;;;;;22.83;12.60;;;;;;;-1.19;81.41;99015.34;1649256;87;21153;-73
2022/01/09 07:56:48;;;;;;;22.63;14.00;;;;;;;-1.20;81.49;99016.20;1667035;86;22034;-80
2022/01/09 07:59:14;;;;;;;20.47;12.50;;;;;;;-1.18;81.42;99014.47;1667135;86;21062;-71
2022/01/09 08:01:41;;;;;;;24.33;14.53;;;;;;;-1.19;81.38;99016.64;1648457;87;21046;-75
2022/01/09 08:04:08;;;;;;;26.47;15.03;;;;;;;-1.22;81.25;99017.08;1650812;86;21520;-73
2022/01/09 08:06:36;;;;;;;39.13;18.57;;;;;;;-1.19;81.44;99017.92;1650660;87;21920;-72
2022/01/09 08:09:03;;;;;;;69.10;27.47;;;;;;;-1.16;81.41;99011.45;1648872;85;21015;-74
2022/01/09 08:11:30;;;;;;;30.73;14.13;;;;;;;-1.14;81.43;99016.16;1649010;85;21735;-70
2022/01/09 08:13:57;;;;;;;50.73;20.83;;;;;;;-1.10;81.20;99016.11;1649711;87;21055;-71
2022/01/09 08:16:24;;;;;;;46.93;21.60;;;;;;;-1.12;81.21;99015.67;1649350;87;21071;-76
2022/01/09 08:18:51;;;;;;;27.37;15.10;;;;;;;-1.08;81.43;99013.94;1657842;86;21136;-73
2022/01/09 08:21:20;;;;;;;29.30;16.07;;;;;;;-1.02;81.46;99015.58;1667181;86;20959;-72
2022/01/09 08:23:49;;;;;;;24.87;15.37;;;;;;;-0.97;81.28;99017.64;1667613;85;21043;-71
2022/01/09 08:26:18;;;;;;;28.23;15.23;;;;;;;-0.95;81.25;99015.46;1654152;86;21053;-72
2022/01/09 08:28:47;;;;;;;39.83;19.57;;;;;;;-0.96;81.18;99015.06;1652426;86;21728;-74
2022/01/09 08:31:16;;;;;;;31.20;16.07;;;;;;;-0.87;81.45;99019.67;1652479;86;21160;-72
2022/01/09 08:33:43;;;;;;;26.40;13.93;;;;;;;-0.81;81.32;99022.16;1652467;86;21476;-81
2022/01/09 08:36:10;;;;;;;32.30;17.50;;;;;;;-0.78;81.22;99018.25;1652381;86;21076;-75
2022/01/09 08:38:37;;;;;;;28.53;15.33;;;;;;;-0.75;81.22;99017.80;1652606;86;21066;-77
2022/01/09 08:41:04;;;;;;;33.57;18.53;;;;;;;-0.71;81.22;99007.87;1652498;86;21109;-73
2022/01/09 08:43:34;;;;;;;38.70;19.17;;;;;;;-0.66;81.11;99015.53;1652499;86;21145;-73
2022/01/09 08:46:01;;;;;;;41.58;21.45;;;;;;;-0.60;81.14;99017.17;1652606;86;21025;-73
2022/01/09 08:48:28;;;;;;;38.10;19.90;;;;;;;-0.54;81.15;99017.08;1652554;86;21065;-86
2022/01/09 08:50:55;;;;;;;61.97;29.40;;;;;;;-0.49;81.11;99020.00;1652442;86;21078;-76
2022/01/09 08:53:22;;;;;;;39.63;23.27;;;;;;;-0.41;81.09;99015.19;1652367;86;21105;-74
2022/01/09 08:55:49;;;;;;;42.50;23.33;;;;;;;-0.28;81.14;99026.98;1649373;86;21207;-73
2022/01/09 08:58:16;;;;;;;41.40;23.23;;;;;;;-0.19;81.12;99019.55;1602659;89;21109;-71
2022/01/09 09:00:43;;;;;;;38.87;20.17;;;;;;;-0.04;81.06;99010.30;1643817;87;21091;-71
2022/01/09 09:03:09;;;;;;;32.13;18.13;;;;;;;0.09;81.07;99003.23;1628662;88;21063;-71
2022/01/09 09:05:37;;;;;;;23.80;14.57;;;;;;;0.25;80.91;99005.95;1628531;88;21074;-71
2022/01/09 09:08:04;;;;;;;23.23;13.23;;;;;;;0.38;80.85;99001.41;1628774;88;21129;-71
2022/01/09 09:10:31;;;;;;;38.40;18.37;;;;;;;0.52;80.47;99002.45;1628578;88;21043;-72
2022/01/09 09:12:58;;;;;;;29.07;16.13;;;;;;;0.66;80.54;99004.32;1628581;88;21636;-72
2022/01/09 09:15:25;;;;;;;36.67;18.57;;;;;;;0.79;80.34;98998.50;1628597;88;21059;-73
2022/01/09 09:17:54;;;;;;;37.27;18.43;;;;;;;0.87;80.10;99000.48;1628799;88;21091;-79
2022/01/09 09:20:22;;;;;;;34.30;18.77;;;;;;;1.00;79.91;99001.94;1628657;88;21162;-73
2022/01/09 09:22:49;;;;;;;34.90;17.87;;;;;;;1.12;79.86;98996.95;1628743;88;21049;-73
2022/01/09 09:25:16;;;;;;;43.83;24.77;;;;;;;1.19;79.67;99002.83;1626302;88;21155;-75
2022/01/09 09:27:43;;;;;;;37.10;19.27;;;;;;;1.26;79.57;98999.24;1621667;88;21038;-74
2022/01/09 09:30:11;;;;;;;36.90;19.93;;;;;;;1.37;79.41;98991.27;1621753;88;22263;-73
2022/01/09 09:32:38;;;;;;;31.73;17.60;;;;;;;1.45;79.17;98993.23;1621637;88;21600;-75
2022/01/09 09:35:08;;;;;;;28.23;14.20;;;;;;;1.46;79.08;98988.02;1621713;88;21028;-72
2022/01/09 09:37:35;;;;;;;27.50;14.50;;;;;;;1.58;79.12;98985.63;1615230;87;21008;-71
2022/01/09 09:40:04;;;;;;;25.20;13.37;;;;;;;1.65;78.98;98985.02;1637878;87;20994;-76
2022/01/09 09:42:31;;;;;;;24.47;13.80;;;;;;;1.69;78.53;98986.63;1638239;87;21038;-74
2022/01/09 09:45:01;;;;;;;25.43;14.93;;;;;;;1.72;78.51;98986.14;1638240;87;21962;-78
2022/01/09 09:47:28;;;;;;;24.90;14.27;;;;;;;1.78;78.32;98988.57;1638408;87;21490;-72
2022/01/09 09:49:57;;;;;;;27.50;15.43;;;;;;;1.88;78.29;98988.34;1638431;87;22259;-76
2022/01/09 09:52:25;;;;;;;26.77;15.17;;;;;;;1.99;78.12;98985.05;1638578;87;21081;-72
2022/01/09 09:54:53;;;;;;;22.03;13.60;;;;;;;2.13;78.08;98986.83;1641554;87;21070;-78
2022/01/09 09:57:21;;;;;;;24.43;14.03;;;;;;;2.28;77.83;98989.49;1638402;87;21139;-76
2022/01/09 09:59:48;;;;;;;22.83;14.33;;;;;;;2.39;77.49;98987.92;1638200;87;21290;-71
2022/01/09 10:02:18;;;;;;;22.60;14.90;;;;;;;2.46;77.14;98985.56;1638655;87;21023;-81
2022/01/09 10:05:06;;;;;;;31.65;17.65;;;;;;;2.52;76.87;98985.39;1638410;87;21011;-71
2022/01/09 10:07:34;;;;;;;27.40;15.47;;;;;;;2.54;76.63;98984.91;1638623;87;21476;-79
2022/01/09 10:10:09;;;;;;;21.93;13.23;;;;;;;2.50;76.40;98981.17;1638342;87;21841;-74
2022/01/09 10:12:37;;;;;;;22.53;13.70;;;;;;;2.50;76.15;98985.90;1638591;87;21081;-73
2022/01/09 10:15:09;;;;;;;21.80;14.13;;;;;;;2.54;76.28;98987.50;1638328;87;21081;-72
2022/01/09 10:17:44;;;;;;;19.53;12.33;;;;;;;2.64;76.16;98985.07;1638577;87;21070;-70
2022/01/09 10:20:25;;;;;;;24.40;13.47;;;;;;;2.63;75.94;98980.80;1610918;88;21038;-77
2022/01/09 10:22:55;;;;;;;31.70;16.60;;;;;;;2.61;75.68;98984.31;1630265;87;21221;-71
2022/01/09 10:25:35;;;;;;;27.95;15.35;;;;;;;2.59;75.65;98980.91;1640861;86;21058;-76
2022/01/09 10:28:17;;;;;;;29.60;16.57;;;;;;;2.67;75.74;98978.97;1644408;87;21154;-74
2022/01/09 10:30:51;;;;;;;38.13;19.20;;;;;;;2.65;75.36;98971.23;1622666;88;21080;-71
2022/01/09 10:33:23;;;;;;;54.60;26.70;;;;;;;2.64;75.60;98969.55;1624003;88;21080;-75
2022/01/09 10:35:50;;;;;;;40.13;21.00;;;;;;;2.68;75.59;98968.56;1623798;88;21407;-72
2022/01/09 10:38:27;;;;;;;40.57;22.30;;;;;;;2.69;75.07;98968.14;1623963;88;21035;-72
2022/01/09 10:40:57;;;;;;;35.87;18.97;;;;;;;2.74;75.11;98959.78;1623962;88;21035;-77
2022/01/09 10:43:26;;;;;;;;;;;;;;;2.78;74.99;98964.44;1626318;88;21525;-73
2022/01/09 10:45:59;;;;;;;32.63;16.90;;;;;;;2.79;74.95;98963.54;1621228;88;20595;-78
2022/01/09 10:48:43;;;;;;;56.77;28.70;;;;;;;2.82;74.80;98957.82;1623615;88;21635;-74
2022/01/09 10:51:13;;;;;;;47.73;23.63;;;;;;;2.78;74.68;98954.94;1649086;85;21099;-74
2022/01/09 10:53:43;;;;;;;35.70;17.87;;;;;;;2.83;74.85;98949.64;1651074;86;21063;-70
2022/01/09 10:56:19;;;;;;;30.80;17.00;;;;;;;2.88;74.82;98963.27;1654585;85;21415;-77
2022/01/09 10:58:51;;;;;;;21.63;12.50;;;;;;;2.86;74.38;98959.90;1651945;85;21038;-74
2022/01/09 11:01:28;;;;;;;34.13;19.30;;;;;;;2.87;74.24;98961.58;1653742;85;21557;-70
2022/01/09 11:04:06;;;;;;;33.93;20.13;;;;;;;2.86;74.31;98958.16;1662103;85;21520;-77
2022/01/09 11:06:43;;;;;;;39.70;25.10;;;;;;;2.88;74.36;98959.38;1656510;86;21043;-78
2022/01/09 11:09:11;;;;;;;35.33;21.47;;;;;;;2.93;74.49;98961.85;1667549;86;21046;-73
2022/01/09 11:11:40;;;;;;;54.47;31.37;;;;;;;2.96;74.32;98966.48;1627567;87;21141;-78
2022/01/09 11:14:16;;;;;;;34.00;20.13;;;;;;;3.02;74.28;98958.56;1646870;86;22040;-78
2022/01/09 11:16:51;;;;;;;68.80;37.03;;;;;;;3.07;74.36;98963.58;1663765;86;21011;-70
2022/01/09 11:19:23;;;;;;;30.80;17.07;;;;;;;3.14;74.19;98961.23;1649563;87;21452;-70
2022/01/09 11:21:59;;;;;;;43.37;24.13;;;;;;;3.19;74.06;98965.83;1664755;85;21027;-73
2022/01/09 11:25:12;;;;;;;50.00;24.27;;;;;;;3.27;74.04;98965.15;1649132;87;21028;-78
2022/01/09 11:27:44;;;;;;;90.07;32.43;;;;;;;3.30;73.78;98968.09;1648397;86;21137;-73
2022/01/09 11:30:18;;;;;;;53.40;23.30;;;;;;;3.32;73.48;98973.59;1647355;87;21027;-79